INFORMAÇÕES METEOROLÓGICAS
METAR FOR KAVX
ADDS - METARS form results

(0520 UTC 17 July 2019)
Data provider http://aviationweather.gov/metar/data/
 
METAR text: KAVX 170451Z AUTO 02007KT 1/4SM FG VV001 16/16 A2990 RMK AO2 SLP100 T01610156 $
Conditions at: KAVX (AVALON , CA, US) observed 0451 UTC 17 July 2019
Temperature: 16.1°C (61°F)
Dewpoint: 15.6°C (60°F) [RH = 97%]
Pressure (altimeter): 29.90 inches Hg (1012.6 mb)
[Sea-level pressure: 1010.0 mb]
Winds: from the NNE (20 degrees) at 8 MPH (7 knots; 3.6 m/s)
Visibility: 0.25 miles (0.40 km)
Ceiling: indefinite ceiling with vertical visibility of 100 feet AGL
Clouds: obscured sky
Weather: FG  (fog)
SOME DATA ABOVE MAY BE INACCURATE!!!
"$" is an indication the sensor requires maintenance

METAR text: KAVX 170446Z AUTO 01006KT 1/2SM HZ VV002 18/16 A2989 RMK AO2
Conditions at: KAVX (AVALON , CA, US) observed 0446 UTC 17 July 2019
Temperature: 18.0°C (64°F)
Dewpoint: 16.0°C (61°F) [RH = 88%]
Pressure (altimeter): 29.89 inches Hg (1012.3 mb)
Winds: from the N (10 degrees) at 7 MPH (6 knots; 3.1 m/s)
Visibility: 0.50 miles (0.80 km)
Ceiling: indefinite ceiling with vertical visibility of 200 feet AGL
Clouds: obscured sky
Weather: HZ  (haze)

 MAPA DO AEROPORTO

 INFORMAÇÕES DA PISTA
Pista 04 Tamanho da pista 3000 ft Largura da pista 60 ft
Elevação da pista 1602 ft Ranhura da pista 120 ft Proa da pista 54
Pista 22 Tamanho da pista 3000 ft Largura da pista 60 ft
Elevação da pista 1602 ft Ranhura da pista 149 ft Proa da pista 234

 FREQUÊNCIAS DO AEROPORTO
Tipo A/D Nome SOCAL APP/ Frequência 127.4 MHZ
Tipo UNIC Nome CTAF/UNICO Frequência 122.7 MHZ

 AUXÍLIOS DE NAVEGAÇÃO PRÓXIMOS AO AEROPORTO



Powered by Mercosul Lnhas Aereas